Time;durP1;ratioP1;P1;durP2;ratioP2;P2;SDS_P1;SDS_P2;PMS_P1;PMS_P2;Temp;Humidity;BMP_temperature;BMP_pressure;BME280_temperature;BME280_humidity;BME280_pressure;Samples;Min_cycle;Max_cycle;Signal;HPM_P1;HPM_P2
2023/05/12 00:00:58;;;;;;;5.83;5.23;;;;;;;13.91;60.33;94834.16;5133229;27;20231;-46
2023/05/12 00:03:25;;;;;;;6.10;5.60;;;;;;;13.95;60.26;94834.66;5133391;27;20195;-43
2023/05/12 00:05:52;;;;;;;6.90;5.47;;;;;;;13.94;60.20;94836.41;5133573;27;20184;-45
2023/05/12 00:08:19;;;;;;;8.13;5.17;;;;;;;13.91;60.33;94835.94;5133799;27;20188;-45
2023/05/12 00:10:47;;;;;;;6.03;5.43;;;;;;;13.90;60.05;94831.72;5133455;27;20200;-47
2023/05/12 00:13:14;;;;;;;8.43;5.67;;;;;;;13.78;60.13;94820.94;5133330;27;20684;-45
2023/05/12 00:15:41;;;;;;;6.00;5.60;;;;;;;13.92;60.22;94834.97;5133342;27;20189;-45
2023/05/12 00:18:08;;;;;;;6.83;5.63;;;;;;;13.90;60.03;94836.88;5132910;27;20189;-45
2023/05/12 00:20:35;;;;;;;5.93;5.43;;;;;;;13.87;60.12;94826.91;5133091;27;20620;-44
2023/05/12 00:23:02;;;;;;;6.20;5.70;;;;;;;13.88;60.03;94829.31;5133114;27;20188;-47
2023/05/12 00:25:29;;;;;;;9.20;5.73;;;;;;;13.87;60.11;94835.44;5132188;27;20227;-47
2023/05/12 00:27:57;;;;;;;6.33;5.43;;;;;;;13.85;60.13;94837.31;5131381;28;20844;-45
2023/05/12 00:30:24;;;;;;;6.00;5.00;;;;;;;13.84;60.14;94835.72;5131578;28;20660;-46
2023/05/12 00:32:51;;;;;;;15.67;5.00;;;;;;;13.83;60.11;94839.25;5131605;28;20216;-46
2023/05/12 00:35:18;;;;;;;5.50;5.00;;;;;;;13.81;60.04;94841.16;5132116;28;20191;-43
2023/05/12 00:37:45;;;;;;;4.97;4.57;;;;;;;13.77;60.05;94832.16;5131503;28;20188;-47
2023/05/12 00:40:12;;;;;;;5.40;4.90;;;;;;;13.78;60.36;94844.88;5131850;28;20236;-45
2023/05/12 00:42:38;;;;;;;4.87;4.47;;;;;;;13.73;60.24;94841.94;5131452;28;20564;-44
2023/05/12 00:45:08;;;;;;;5.83;5.20;;;;;;;13.74;60.42;94846.13;5131154;28;20195;-45
2023/05/12 00:47:36;;;;;;;5.37;4.87;;;;;;;13.72;60.59;94845.47;5131810;28;20660;-45
2023/05/12 00:50:03;;;;;;;5.93;5.33;;;;;;;13.71;60.59;94846.44;5134088;28;20185;-46
2023/05/12 00:52:30;;;;;;;5.67;4.73;;;;;;;13.50;60.65;94821.09;5132715;28;20200;-45
2023/05/12 00:54:58;;;;;;;7.03;5.00;;;;;;;13.67;60.86;94850.25;5131619;28;20471;-45
2023/05/12 00:57:26;;;;;;;8.70;5.10;;;;;;;13.62;60.88;94856.81;5131333;28;20245;-44
2023/05/12 00:59:53;;;;;;;5.53;5.03;;;;;;;13.60;61.21;94851.00;5131490;28;20180;-44
2023/05/12 01:02:22;;;;;;;5.27;4.60;;;;;;;13.61;61.19;94857.78;5130397;27;20219;-47
2023/05/12 01:04:49;;;;;;;5.50;5.00;;;;;;;13.55;61.43;94851.47;5130523;28;20195;-45
2023/05/12 01:07:21;;;;;;;5.17;4.63;;;;;;;13.30;61.67;94817.94;5131077;28;20649;-45
2023/05/12 01:09:48;;;;;;;7.63;5.80;;;;;;;13.53;61.63;94861.09;5130907;28;20203;-43
2023/05/12 01:12:15;;;;;;;6.13;5.53;;;;;;;13.49;62.04;94855.47;5130953;28;20196;-45
2023/05/12 01:14:42;;;;;;;6.33;5.70;;;;;;;13.45;61.92;94856.72;5131103;28;20176;-45
2023/05/12 01:17:12;;;;;;;6.00;5.47;;;;;;;13.45;62.15;94849.00;5130624;28;20181;-43
2023/05/12 01:19:43;;;;;;;5.87;5.27;;;;;;;13.44;62.39;94849.16;5131067;28;20637;-45
2023/05/12 01:22:12;;;;;;;5.73;5.13;;;;;;;13.40;62.35;94856.38;5130715;28;20231;-44
2023/05/12 01:24:46;;;;;;;6.23;5.63;;;;;;;13.35;62.69;94850.09;5090424;27;1148740;-42
2023/05/12 01:27:16;;;;;;;5.23;4.80;;;;;;;13.34;62.76;94853.59;5131510;27;20266;-46
2023/05/12 01:29:44;;;;;;;6.10;5.13;;;;;;;13.32;62.90;94861.44;5131541;27;20748;-44
2023/05/12 01:32:10;;;;;;;5.63;5.13;;;;;;;13.29;63.10;94857.41;5131775;27;20625;-46
2023/05/12 01:34:37;;;;;;;7.00;5.70;;;;;;;13.19;63.23;94848.97;5131602;27;20295;-40
2023/05/12 01:37:05;;;;;;;6.00;5.50;;;;;;;13.25;63.36;94856.09;5131481;27;20196;-41
2023/05/12 01:39:31;;;;;;;6.63;5.97;;;;;;;13.24;63.24;94851.13;5131511;27;20653;-41
2023/05/12 01:41:58;;;;;;;6.10;5.40;;;;;;;13.22;63.33;94851.28;5130756;27;20215;-42
2023/05/12 01:44:26;;;;;;;5.70;5.20;;;;;;;13.19;63.66;94854.09;5131262;27;20538;-44
2023/05/12 01:46:53;;;;;;;9.27;5.37;;;;;;;13.18;63.60;94855.06;5131354;27;20233;-44
2023/05/12 01:49:20;;;;;;;5.67;5.17;;;;;;;13.14;63.32;94855.50;5131495;27;20188;-42
2023/05/12 01:51:46;;;;;;;6.07;5.47;;;;;;;13.13;63.34;94861.63;5131164;27;20338;-42
2023/05/12 01:54:13;;;;;;;5.60;5.10;;;;;;;13.12;63.74;94857.41;5131231;27;20244;-42
2023/05/12 01:56:40;;;;;;;6.47;5.80;;;;;;;13.09;64.01;94848.25;5131141;27;20184;-43
2023/05/12 01:59:08;;;;;;;6.83;5.60;;;;;;;13.07;63.97;94856.09;5131260;27;20546;-42
2023/05/12 02:01:36;;;;;;;5.70;5.20;;;;;;;13.03;63.92;94844.50;5131399;27;20315;-42
2023/05/12 02:04:03;;;;;;;7.63;5.57;;;;;;;13.03;64.05;94852.22;5130803;27;20192;-42
2023/05/12 02:06:30;;;;;;;6.13;5.37;;;;;;;13.01;64.41;94850.75;5130932;27;20188;-42
2023/05/12 02:08:57;;;;;;;6.37;5.73;;;;;;;13.00;64.30;94851.72;5130292;27;20188;-42
2023/05/12 02:11:24;;;;;;;5.70;5.07;;;;;;;12.99;64.21;94857.78;5131082;27;20223;-44
2023/05/12 02:13:51;;;;;;;7.80;5.83;;;;;;;12.96;64.33;94851.22;5130619;27;20279;-45
2023/05/12 02:16:17;;;;;;;6.27;5.07;;;;;;;12.96;64.45;94845.28;5130625;27;20181;-45
2023/05/12 02:18:46;;;;;;;5.63;5.03;;;;;;;12.89;64.61;94842.47;5131035;27;20176;-43
2023/05/12 02:21:12;;;;;;;5.50;5.00;;;;;;;12.87;64.59;94841.84;5130988;27;20279;-46
2023/05/12 02:23:39;;;;;;;6.37;5.70;;;;;;;12.90;64.61;94841.50;5130447;27;20200;-43
2023/05/12 02:26:06;;;;;;;7.80;5.53;;;;;;;12.89;64.61;94844.25;5130661;27;20661;-45
2023/05/12 02:28:33;;;;;;;6.30;5.10;;;;;;;12.86;64.87;94845.34;5130765;27;20187;-41
2023/05/12 02:31:00;;;;;;;5.50;5.00;;;;;;;12.84;65.08;94846.44;5130472;27;20208;-46
2023/05/12 02:33:26;;;;;;;5.47;4.90;;;;;;;12.68;64.90;94816.31;5130773;27;20234;-44
2023/05/12 02:35:55;;;;;;;5.30;4.90;;;;;;;12.81;64.95;94847.53;5130424;27;20183;-43
2023/05/12 02:38:21;;;;;;;10.47;5.40;;;;;;;12.79;64.97;94842.56;5130347;27;20284;-45
2023/05/12 02:40:48;;;;;;;6.83;5.00;;;;;;;12.73;65.20;94840.56;5130226;27;20191;-45
2023/05/12 02:43:15;;;;;;;5.73;5.23;;;;;;;12.75;65.26;94850.72;5130445;27;20200;-46
2023/05/12 02:45:42;;;;;;;5.83;5.10;;;;;;;12.73;65.26;94848.28;5129792;27;20556;-43
2023/05/12 02:48:09;;;;;;;5.40;4.90;;;;;;;12.71;65.26;94845.06;5130387;27;20603;-45
2023/05/12 02:50:35;;;;;;;6.90;5.10;;;;;;;12.69;65.43;94854.66;5129988;27;20199;-42
2023/05/12 02:53:04;;;;;;;5.83;5.23;;;;;;;12.49;65.73;94812.94;5130445;27;20192;-45
2023/05/12 02:55:31;;;;;;;4.97;4.57;;;;;;;12.63;65.53;94850.09;5130212;27;20720;-46
2023/05/12 02:57:58;;;;;;;5.63;4.30;;;;;;;12.62;65.51;94845.94;5130284;28;20196;-44
2023/05/12 03:00:24;;;;;;;5.43;4.77;;;;;;;12.65;65.59;94844.81;5129883;28;20667;-43
2023/05/12 03:02:51;;;;;;;7.57;4.23;;;;;;;12.63;65.71;94857.81;5130468;28;20250;-50
2023/05/12 03:05:18;;;;;;;4.73;4.33;;;;;;;12.63;65.55;94862.94;5130262;28;20661;-44
2023/05/12 03:07:47;;;;;;;6.60;4.47;;;;;;;12.63;65.57;94857.81;5129890;28;20191;-41
2023/05/12 03:10:15;;;;;;;4.50;4.10;;;;;;;12.58;65.74;94852.31;5129728;28;20192;-45
2023/05/12 03:12:42;;;;;;;5.77;4.53;;;;;;;12.61;65.75;94862.28;5130064;28;20184;-42
2023/05/12 03:15:10;;;;;;;7.67;4.80;;;;;;;12.58;65.68;94856.63;5129700;28;20569;-43
2023/05/12 03:17:36;;;;;;;5.33;4.33;;;;;;;12.59;65.56;94868.50;5129863;28;20188;-40
2023/05/12 03:20:04;;;;;;;5.20;4.03;;;;;;;12.59;65.86;94869.31;5130130;28;20248;-41
2023/05/12 03:22:31;;;;;;;4.27;3.87;;;;;;;12.33;65.77;94841.00;5129889;28;20216;-45
2023/05/12 03:24:58;;;;;;;4.60;4.20;;;;;;;12.56;65.77;94872.16;5129725;27;20228;-45
2023/05/12 03:27:26;;;;;;;5.10;3.73;;;;;;;12.13;65.81;94812.09;5133108;27;20184;-45
2023/05/12 03:29:53;;;;;;;5.60;4.10;;;;;;;12.59;65.76;94889.84;5134494;27;20192;-45
2023/05/12 03:32:20;;;;;;;3.77;3.47;;;;;;;12.57;65.83;94876.34;5134068;27;20182;-45
2023/05/12 03:34:47;;;;;;;5.77;4.03;;;;;;;12.61;65.90;94887.94;5134226;27;20176;-44
2023/05/12 03:37:13;;;;;;;7.33;3.87;;;;;;;12.60;65.75;94888.06;5133814;27;20192;-44
2023/05/12 03:39:40;;;;;;;4.83;4.13;;;;;;;12.59;65.83;94884.72;5134409;27;20181;-46
2023/05/12 03:42:07;;;;;;;6.03;4.13;;;;;;;12.63;65.68;94890.34;5133208;27;20212;-45
2023/05/12 03:44:35;;;;;;;4.57;4.00;;;;;;;12.62;65.54;94888.75;5134215;27;20192;-44
2023/05/12 03:47:02;;;;;;;6.80;4.43;;;;;;;12.60;65.72;94882.94;5133805;27;20291;-45
2023/05/12 03:49:29;;;;;;;5.83;4.73;;;;;;;12.59;65.54;94889.03;5133783;27;20284;-45
2023/05/12 03:51:56;;;;;;;4.40;4.00;;;;;;;12.64;65.82;94900.47;5133978;27;20196;-44
2023/05/12 03:54:22;;;;;;;4.73;4.20;;;;;;;12.64;65.80;94892.78;5133653;27;20195;-44
2023/05/12 03:56:49;;;;;;;4.87;4.37;;;;;;;12.64;65.90;94894.53;5133292;27;20192;-45
2023/05/12 03:59:16;;;;;;;4.93;4.53;;;;;;;12.64;65.95;94895.34;5133504;27;20260;-44
2023/05/12 04:01:44;;;;;;;5.00;4.30;;;;;;;12.62;65.88;94896.44;5133385;27;20223;-45
2023/05/12 04:04:11;;;;;;;4.50;4.10;;;;;;;12.66;65.98;94896.00;5133547;27;20381;-44
2023/05/12 04:06:38;;;;;;;9.60;4.43;;;;;;;12.66;65.79;94902.91;5133630;27;20176;-48
2023/05/12 04:09:04;;;;;;;4.60;4.20;;;;;;;12.69;65.93;94910.28;5114340;27;20730;-46
2023/05/12 04:11:31;;;;;;;6.13;4.40;;;;;;;12.73;65.73;94909.06;5133427;27;20554;-44
2023/05/12 04:13:58;;;;;;;4.97;4.20;;;;;;;12.75;65.83;94907.97;5133076;27;20193;-45
2023/05/12 04:16:25;;;;;;;5.00;4.50;;;;;;;12.79;65.87;94906.72;5133357;27;20204;-46
2023/05/12 04:18:53;;;;;;;5.67;4.37;;;;;;;12.84;65.76;94902.91;5133334;27;20200;-43
2023/05/12 04:21:20;;;;;;;4.50;4.10;;;;;;;12.86;65.63;94908.69;5132769;27;20637;-46
2023/05/12 04:23:46;;;;;;;6.83;4.23;;;;;;;12.93;65.58;94914.88;5132799;27;20664;-44
2023/05/12 04:26:13;;;;;;;5.07;4.40;;;;;;;12.97;65.26;94914.44;5112041;28;20181;-43
2023/05/12 04:28:40;;;;;;;4.23;3.83;;;;;;;13.01;65.44;94910.63;5112638;28;20196;-43
2023/05/12 04:31:07;;;;;;;7.37;4.60;;;;;;;13.06;65.40;94905.03;5112204;28;20196;-46
2023/05/12 04:33:34;;;;;;;4.60;4.20;;;;;;;13.05;65.44;94899.09;5112928;28;20186;-48
2023/05/12 04:36:02;;;;;;;5.17;4.07;;;;;;;13.08;65.18;94905.69;5112567;28;20242;-46
2023/05/12 04:38:29;;;;;;;5.03;4.53;;;;;;;13.13;65.27;94907.84;5111927;28;20185;-44
2023/05/12 04:40:58;;;;;;;5.37;4.37;;;;;;;13.15;65.29;94899.00;5112170;28;20249;-43
2023/05/12 04:43:25;;;;;;;5.83;4.00;;;;;;;13.17;65.10;94897.13;5111787;28;20255;-46
2023/05/12 04:45:54;;;;;;;4.70;4.30;;;;;;;13.18;65.25;94898.72;5111477;28;20189;-45
2023/05/12 04:48:21;;;;;;;4.73;4.13;;;;;;;13.20;65.13;94903.69;5112633;28;20193;-46
2023/05/12 04:50:48;;;;;;;5.27;4.73;;;;;;;13.21;65.07;94902.72;5112065;28;20185;-44
2023/05/12 04:53:16;;;;;;;4.90;4.47;;;;;;;13.09;65.22;94886.78;5112147;28;20189;-45
2023/05/12 04:55:44;;;;;;;4.53;3.80;;;;;;;13.24;65.07;94910.19;5112058;28;20225;-44
2023/05/12 04:58:14;;;;;;;4.47;4.07;;;;;;;13.03;65.16;94882.22;5112026;28;20489;-44
2023/05/12 05:00:41;;;;;;;4.43;3.80;;;;;;;13.21;65.18;94900.16;5113252;28;20186;-45
2023/05/12 05:03:08;;;;;;;4.30;3.90;;;;;;;13.17;65.10;94898.84;5113080;28;20209;-43
2023/05/12 05:05:35;;;;;;;7.40;4.30;;;;;;;13.17;65.35;94886.00;5111640;28;20197;-43
2023/05/12 05:08:02;;;;;;;4.77;4.27;;;;;;;13.29;64.96;94911.34;5111677;28;20662;-41
2023/05/12 05:10:30;;;;;;;4.33;3.97;;;;;;;13.24;65.05;94897.34;5112214;28;20199;-42
2023/05/12 05:12:57;;;;;;;4.67;4.20;;;;;;;13.33;65.16;94909.28;5111653;28;20245;-46
2023/05/12 05:15:24;;;;;;;5.90;4.20;;;;;;;13.36;64.94;94916.69;5112125;28;20192;-42
2023/05/12 05:17:50;;;;;;;7.10;4.47;;;;;;;13.37;64.85;94915.75;5110996;28;20226;-42
2023/05/12 05:20:18;;;;;;;4.43;4.03;;;;;;;13.40;64.87;94917.22;5112070;28;20193;-45
2023/05/12 05:22:45;;;;;;;5.10;4.53;;;;;;;13.42;64.62;94913.53;5111196;28;20605;-43
2023/05/12 05:25:13;;;;;;;4.77;4.33;;;;;;;13.47;64.70;94905.38;5123389;27;20220;-45
2023/05/12 05:27:41;;;;;;;8.10;4.40;;;;;;;13.49;64.61;94913.75;5132118;27;20188;-45
2023/05/12 05:30:08;;;;;;;5.90;4.13;;;;;;;13.52;64.63;94909.13;5132343;27;20669;-46
2023/05/12 05:32:36;;;;;;;4.00;3.63;;;;;;;13.56;64.49;94912.19;5132154;27;20193;-46
2023/05/12 05:35:03;;;;;;;4.63;4.23;;;;;;;13.62;64.35;94918.50;5122342;27;20224;-43
2023/05/12 05:37:30;;;;;;;4.57;4.03;;;;;;;13.68;64.42;94921.25;5131308;27;20200;-46
2023/05/12 05:39:57;;;;;;;4.40;4.00;;;;;;;13.72;64.35;94925.13;5130444;27;20196;-44
2023/05/12 05:42:24;;;;;;;4.87;4.40;;;;;;;13.76;64.20;94921.31;5130376;27;20312;-45
2023/05/12 05:44:52;;;;;;;8.77;4.47;;;;;;;13.83;70.58;94924.09;5130581;27;20218;-45
2023/05/12 05:47:19;;;;;;;183.53;46.43;;;;;;;14.32;85.59;94919.97;5130875;27;20206;-46
2023/05/12 05:49:46;;;;;;;67.97;23.67;;;;;;;14.65;81.91;94919.34;5130191;27;20668;-43
2023/05/12 05:52:13;;;;;;;47.97;16.50;;;;;;;14.70;76.97;94914.50;5132156;27;20196;-46
2023/05/12 05:54:40;;;;;;;33.57;12.50;;;;;;;14.64;72.24;94915.94;5129496;27;20188;-45
2023/05/12 05:57:06;;;;;;;20.77;10.53;;;;;;;14.58;69.80;94926.06;5130386;27;20184;-43
2023/05/12 05:59:33;;;;;;;16.37;7.63;;;;;;;14.49;68.24;94927.81;5130168;27;20215;-45
2023/05/12 06:02:02;;;;;;;12.77;6.73;;;;;;;14.42;67.26;94927.59;5129842;27;20188;-41
2023/05/12 06:04:29;;;;;;;12.43;6.90;;;;;;;14.34;66.81;94924.19;5130456;27;20189;-45
2023/05/12 06:06:55;;;;;;;7.47;6.07;;;;;;;14.27;66.63;94917.06;5130348;27;20188;-44
2023/05/12 06:09:22;;;;;;;8.57;6.23;;;;;;;14.26;66.41;94925.75;5130333;27;20203;-44
2023/05/12 06:11:49;;;;;;;6.33;5.73;;;;;;;14.15;66.09;94920.88;5130072;27;20191;-45
2023/05/12 06:14:16;;;;;;;5.77;4.80;;;;;;;14.21;66.02;94934.91;5129963;27;20181;-44
2023/05/12 06:16:43;;;;;;;6.40;5.80;;;;;;;14.20;65.83;94930.69;5129570;27;20181;-42
2023/05/12 06:19:11;;;;;;;6.30;5.53;;;;;;;14.05;65.75;94915.84;5129454;27;20192;-46
2023/05/12 06:21:38;;;;;;;6.23;5.63;;;;;;;14.17;65.87;94947.25;5129436;27;20218;-45
2023/05/12 06:24:05;;;;;;;5.67;5.07;;;;;;;14.15;65.46;94948.38;5129305;27;20639;-44
2023/05/12 06:26:32;;;;;;;6.37;5.73;;;;;;;14.09;65.39;94938.69;5130115;27;20188;-43
2023/05/12 06:28:59;;;;;;;7.60;5.23;;;;;;;14.13;65.67;94945.16;5129897;27;20207;-45
2023/05/12 06:31:26;;;;;;;6.60;5.03;;;;;;;14.13;65.42;94945.16;5129110;27;20538;-44
2023/05/12 06:33:53;;;;;;;5.30;4.90;;;;;;;14.15;65.28;94950.94;5130757;27;20192;-44
2023/05/12 06:36:21;;;;;;;6.07;5.23;;;;;;;14.16;65.19;94947.41;5129106;27;20184;-43
2023/05/12 06:38:49;;;;;;;5.70;5.20;;;;;;;14.07;65.21;94931.13;5128082;27;20187;-41
2023/05/12 06:41:16;;;;;;;8.17;5.63;;;;;;;14.29;64.91;94955.50;5129362;27;20812;-41
2023/05/12 06:43:43;;;;;;;5.70;5.20;;;;;;;14.35;64.77;94957.47;5129939;27;20208;-42
2023/05/12 06:46:10;;;;;;;6.17;5.53;;;;;;;14.38;64.58;94964.06;5127982;27;20191;-41
2023/05/12 06:48:37;;;;;;;5.37;4.77;;;;;;;14.48;64.26;94952.72;5128482;27;20184;-42
2023/05/12 06:51:07;;;;;;;6.60;5.53;;;;;;;14.53;64.05;94955.63;5130215;27;20249;-46
2023/05/12 06:53:36;;;;;;;5.00;4.50;;;;;;;14.59;63.92;94967.06;5130001;27;20202;-46
2023/05/12 06:56:04;;;;;;;5.03;4.63;;;;;;;14.66;63.73;94969.84;5131406;27;20208;-43
2023/05/12 06:58:30;;;;;;;5.70;5.13;;;;;;;14.71;63.72;94952.16;5131578;27;20249;-46
2023/05/12 07:00:57;;;;;;;5.33;4.87;;;;;;;14.78;63.43;94961.69;5128811;27;20184;-45
2023/05/12 07:03:24;;;;;;;6.63;5.17;;;;;;;14.79;63.32;94952.97;5126742;28;20212;-44
2023/05/12 07:05:51;;;;;;;5.80;5.20;;;;;;;14.74;63.10;94931.25;5127184;28;20537;-44
2023/05/12 07:08:18;;;;;;;5.70;4.57;;;;;;;14.95;62.97;94957.38;5125783;28;20198;-44
2023/05/12 07:10:46;;;;;;;6.50;5.20;;;;;;;15.01;62.70;94956.72;5127175;28;20215;-45
2023/05/12 07:13:13;;;;;;;5.63;4.90;;;;;;;15.06;62.50;94956.25;5128309;28;20188;-43
2023/05/12 07:15:39;;;;;;;6.73;5.17;;;;;;;15.09;62.47;94953.38;5126982;28;20184;-44
2023/05/12 07:18:06;;;;;;;7.13;5.73;;;;;;;15.16;62.39;94956.94;5126685;28;20233;-46
2023/05/12 07:20:33;;;;;;;6.67;5.27;;;;;;;15.25;62.10;94965.47;5126833;28;20191;-43
2023/05/12 07:23:00;;;;;;;12.50;5.60;;;;;;;15.31;61.94;94964.84;5126052;28;20772;-45
2023/05/12 07:25:27;;;;;;;9.47;5.33;;;;;;;15.35;61.77;94967.91;5126324;28;20228;-44
2023/05/12 07:27:55;;;;;;;6.17;5.57;;;;;;;15.44;61.57;94975.47;5126405;28;20223;-44
2023/05/12 07:30:22;;;;;;;8.60;6.10;;;;;;;15.48;61.34;94970.81;5126041;28;20199;-45
2023/05/12 07:32:49;;;;;;;6.50;5.87;;;;;;;15.55;61.32;94966.63;5126422;28;20283;-41
2023/05/12 07:35:16;;;;;;;6.60;5.33;;;;;;;15.62;61.25;94964.19;5125826;28;20197;-43
2023/05/12 07:37:42;;;;;;;6.40;5.80;;;;;;;15.68;60.85;94961.81;5125774;28;20188;-44
2023/05/12 07:40:09;;;;;;;7.80;6.60;;;;;;;15.57;60.56;94952.59;5126386;28;20180;-46
2023/05/12 07:42:36;;;;;;;6.90;6.20;;;;;;;15.85;60.52;94972.13;5126451;28;20185;-44
2023/05/12 07:45:05;;;;;;;7.57;5.57;;;;;;;15.94;60.37;94971.13;5125902;28;20184;-46
2023/05/12 07:47:32;;;;;;;6.60;6.00;;;;;;;16.03;60.21;94973.53;5126145;28;20192;-45
2023/05/12 07:49:58;;;;;;;6.97;6.37;;;;;;;16.11;59.96;94969.34;5126298;27;20196;-44
2023/05/12 07:52:25;;;;;;;6.00;5.40;;;;;;;16.17;59.52;94955.75;5126467;28;20650;-45
2023/05/12 07:54:52;;;;;;;7.53;6.00;;;;;;;16.35;59.43;94965.88;5126205;28;20533;-46
2023/05/12 07:57:19;;;;;;;6.60;6.00;;;;;;;16.43;59.18;94947.78;5126703;28;20253;-42
2023/05/12 07:59:47;;;;;;;6.77;6.13;;;;;;;16.67;58.73;94957.22;5126132;28;20196;-46
2023/05/12 08:02:16;;;;;;;7.10;6.40;;;;;;;16.91;58.47;94958.88;5126342;28;20227;-43
2023/05/12 08:04:42;;;;;;;7.53;6.10;;;;;;;17.16;57.80;94956.97;5126207;28;20208;-44
2023/05/12 08:07:09;;;;;;;7.67;6.50;;;;;;;17.37;57.35;94946.81;5125944;28;20192;-44
2023/05/12 08:09:36;;;;;;;10.63;5.70;;;;;;;17.72;56.77;94954.94;5126375;28;20292;-45
2023/05/12 08:12:03;;;;;;;6.80;5.60;;;;;;;18.03;56.56;94954.81;5126851;27;20272;-41
2023/05/12 08:14:30;;;;;;;6.03;5.43;;;;;;;18.27;56.01;94952.00;5128791;27;20272;-45
2023/05/12 08:16:56;;;;;;;6.13;5.53;;;;;;;18.51;55.54;94953.47;5129438;27;20188;-43
2023/05/12 08:19:25;;;;;;;6.43;5.80;;;;;;;18.75;55.22;94952.44;5128702;27;20188;-44
2023/05/12 08:21:52;;;;;;;8.37;5.80;;;;;;;18.98;54.94;94960.06;5126260;27;20192;-42
2023/05/12 08:24:19;;;;;;;6.10;5.47;;;;;;;19.18;54.50;94960.28;5127134;27;20228;-41
2023/05/12 08:26:46;;;;;;;6.13;5.37;;;;;;;19.32;54.36;94968.97;5130068;27;20196;-42
2023/05/12 08:29:14;;;;;;;6.43;5.80;;;;;;;19.42;54.11;94963.47;5129873;27;20221;-43
2023/05/12 08:31:41;;;;;;;6.93;5.67;;;;;;;19.50;53.81;94956.38;5128130;27;20227;-42
2023/05/12 08:34:08;;;;;;;6.37;5.60;;;;;;;19.60;53.67;94960.44;5128398;27;20196;-43
2023/05/12 08:36:37;;;;;;;7.73;5.77;;;;;;;19.69;53.62;94962.78;5129340;27;20279;-41
2023/05/12 08:39:04;;;;;;;5.40;4.90;;;;;;;19.68;53.22;94949.97;5128987;27;20196;-45
2023/05/12 08:41:42;;;;;;;8.03;5.70;;;;;;;19.88;52.91;94960.50;5129503;27;20192;-42
2023/05/12 08:44:10;;;;;;;5.57;5.00;;;;;;;19.96;52.70;94968.16;5126487;27;20573;-41
2023/05/12 08:46:38;;;;;;;5.73;5.23;;;;;;;20.01;52.51;94966.59;5140143;27;20188;-44
2023/05/12 08:49:06;;;;;;;6.20;5.60;;;;;;;20.04;52.26;94949.84;5134608;27;20256;-46
2023/05/12 08:51:34;;;;;;;5.40;4.90;;;;;;;20.11;51.96;94968.06;5129075;27;20619;-45
2023/05/12 08:54:04;;;;;;;5.73;5.23;;;;;;;20.14;51.88;94952.91;5128616;27;20196;-40
2023/05/12 08:56:32;;;;;;;6.10;5.57;;;;;;;20.22;51.74;94967.53;5128824;27;20917;-43
2023/05/12 08:59:04;;;;;;;7.50;4.97;;;;;;;20.27;51.67;94959.97;5128013;27;20233;-45
2023/05/12 09:01:34;;;;;;;5.63;5.13;;;;;;;20.31;51.47;94958.59;5129064;27;20200;-44
2023/05/12 09:04:01;;;;;;;6.13;5.50;;;;;;;20.38;51.27;94956.84;5128652;27;20208;-43
2023/05/12 09:06:28;;;;;;;6.37;5.20;;;;;;;20.45;51.02;94960.28;5128164;27;20192;-45
2023/05/12 09:08:55;;;;;;;7.50;5.27;;;;;;;20.52;50.95;94966.34;5128173;27;20760;-43
2023/05/12 09:11:23;;;;;;;7.97;5.37;;;;;;;20.59;50.85;94955.16;5129066;27;20267;-46
2023/05/12 09:13:59;;;;;;;5.55;5.05;;;;;;;20.62;50.63;94963.38;5128500;27;20204;-45
2023/05/12 09:16:31;;;;;;;6.18;5.57;;;;;;;20.64;50.65;94948.41;5127825;27;20748;-44
2023/05/12 09:19:00;;;;;;;5.80;5.20;;;;;;;20.57;50.49;94939.78;5128383;27;20196;-44
2023/05/12 09:21:28;;;;;;;5.40;4.93;;;;;;;20.65;50.26;94955.22;5128933;27;20199;-43
2023/05/12 09:23:57;;;;;;;6.27;4.77;;;;;;;20.64;50.16;94947.59;5126647;27;20219;-43
2023/05/12 09:26:26;;;;;;;6.97;5.03;;;;;;;20.58;50.15;94946.56;5128616;27;20188;-44
2023/05/12 09:28:54;;;;;;;5.72;5.20;;;;;;;20.60;50.04;94949.00;5128077;27;20692;-47
2023/05/12 09:31:22;;;;;;;9.20;5.20;;;;;;;20.58;49.93;94948.38;5128103;27;20195;-46
2023/05/12 09:33:50;;;;;;;4.90;4.45;;;;;;;20.54;49.84;94945.34;5128046;27;20571;-44
2023/05/12 09:36:18;;;;;;;5.40;4.97;;;;;;;20.51;49.91;94940.56;5128417;27;20192;-46
2023/05/12 09:38:45;;;;;;;7.57;5.27;;;;;;;20.49;49.76;94948.53;5127903;27;20268;-43
2023/05/12 09:41:12;;;;;;;7.13;4.93;;;;;;;20.50;49.71;94937.13;5128582;27;20454;-44
2023/05/12 09:43:46;;;;;;;5.78;4.85;;;;;;;20.51;49.76;94949.16;5127684;27;20231;-46
2023/05/12 09:46:13;;;;;;;4.85;4.45;;;;;;;20.54;49.73;94950.56;5125054;27;20311;-45
2023/05/12 09:48:40;;;;;;;5.90;4.53;;;;;;;20.43;49.63;94935.50;5127790;27;20200;-43
2023/05/12 09:51:10;;;;;;;5.80;5.13;;;;;;;20.50;49.60;94942.34;5127982;27;20200;-46
2023/05/12 09:53:43;;;;;;;5.03;4.63;;;;;;;20.46;49.48;94925.50;5127631;27;20748;-48
2023/05/12 09:56:12;;;;;;;5.40;4.85;;;;;;;20.63;49.26;94952.00;5127835;27;20184;-43
2023/05/12 09:58:42;;;;;;;6.00;5.43;;;;;;;20.69;49.04;94940.84;5127587;27;20242;-44
2023/05/12 10:01:13;;;;;;;6.68;4.90;;;;;;;20.62;48.73;94918.41;5127825;27;20216;-41
2023/05/12 10:03:41;;;;;;;5.90;5.37;;;;;;;20.86;48.72;94943.91;5127522;27;20211;-41
2023/05/12 10:06:14;;;;;;;5.60;5.10;;;;;;;20.99;48.60;94945.75;5128088;27;20275;-45
2023/05/12 10:08:47;;;;;;;6.70;6.05;;;;;;;21.15;48.21;94947.97;5124759;27;20203;-43
2023/05/12 10:11:15;;;;;;;7.32;5.20;;;;;;;21.29;48.02;94935.81;5126276;27;20295;-43
2023/05/12 10:13:43;;;;;;;5.63;5.10;;;;;;;21.43;47.70;94940.06;5126954;27;20204;-43
2023/05/12 10:16:11;;;;;;;5.03;4.50;;;;;;;21.57;47.63;94932.25;5127387;27;20611;-46
2023/05/12 10:18:39;;;;;;;5.72;5.13;;;;;;;21.73;47.23;94929.25;5127515;27;20196;-42
2023/05/12 10:21:10;;;;;;;8.10;5.38;;;;;;;21.84;47.24;94931.25;5127588;27;20943;-46
2023/05/12 10:23:41;;;;;;;5.13;4.70;;;;;;;21.95;46.75;94937.66;5127651;27;20230;-48
2023/05/12 10:26:10;;;;;;;5.53;4.95;;;;;;;21.96;46.76;94916.63;5127733;27;20232;-47
2023/05/12 10:28:37;;;;;;;6.53;4.80;;;;;;;22.14;46.47;94929.03;5125029;27;20191;-45
2023/05/12 10:31:06;;;;;;;5.00;4.50;;;;;;;22.21;46.36;94923.81;5126455;27;20589;-45
2023/05/12 10:33:35;;;;;;;5.35;4.72;;;;;;;22.26;46.23;94913.59;5127374;27;20203;-45
2023/05/12 10:36:03;;;;;;;5.30;4.88;;;;;;;22.38;45.93;94919.78;5126315;27;20192;-45
2023/05/12 10:38:37;;;;;;;4.60;4.20;;;;;;;22.50;45.76;94925.94;5126710;27;20572;-46
2023/05/12 10:41:06;;;;;;;4.70;4.30;;;;;;;22.59;45.47;94926.53;5126231;27;20198;-46
2023/05/12 10:43:40;;;;;;;4.93;4.53;;;;;;;22.67;45.36;94921.06;5126784;27;20204;-47
2023/05/12 10:46:16;;;;;;;5.45;4.80;;;;;;;22.75;45.02;94926.06;5125897;27;20184;-45
2023/05/12 10:48:55;;;;;;;5.30;4.53;;;;;;;22.87;44.92;94914.97;5126936;27;20188;-44
2023/05/12 10:51:23;;;;;;;4.90;4.38;;;;;;;22.84;44.71;94897.94;5127198;27;20199;-47
2023/05/12 10:53:57;;;;;;;5.75;4.22;;;;;;;23.07;44.47;94920.91;5124305;27;20264;-43
2023/05/12 10:56:27;;;;;;;4.35;3.97;;;;;;;23.09;44.52;94905.84;5124250;27;20633;-44
2023/05/12 10:59:16;;;;;;;5.95;4.20;;;;;;;23.20;44.39;94923.44;5125876;27;20311;-45
2023/05/12 11:01:56;;;;;;;4.50;3.60;;;;;;;23.24;44.36;94916.78;5126564;28;20184;-44
2023/05/12 11:04:36;;;;;;;4.63;4.22;;;;;;;23.34;44.26;94924.16;5126737;28;20203;-44
2023/05/12 11:07:06;;;;;;;4.57;3.88;;;;;;;23.36;44.07;94918.72;5126276;28;20180;-44
2023/05/12 11:09:35;;;;;;;4.65;3.92;;;;;;;23.33;43.97;94927.78;5126737;28;20574;-45
2023/05/12 11:12:02;;;;;;;4.15;3.60;;;;;;;23.30;43.99;94928.19;5127268;28;20200;-47
2023/05/12 11:14:29;;;;;;;4.55;3.85;;;;;;;23.28;43.95;94925.00;5128440;28;20243;-45
2023/05/12 11:16:56;;;;;;;5.43;4.03;;;;;;;23.25;43.89;94928.81;5126758;28;20233;-44
2023/05/12 11:19:25;;;;;;;3.78;3.47;;;;;;;23.23;43.91;94923.03;5126246;28;20196;-43
2023/05/12 11:21:51;;;;;;;4.32;3.70;;;;;;;23.22;43.86;94921.41;5126537;28;20180;-47
2023/05/12 11:24:18;;;;;;;4.00;3.70;;;;;;;23.18;43.93;94927.25;5126316;28;20231;-44
2023/05/12 11:26:45;;;;;;;3.72;3.42;;;;;;;23.12;44.05;94922.88;5126719;28;20211;-45
2023/05/12 11:29:12;;;;;;;4.57;4.18;;;;;;;22.92;43.96;94910.75;5126442;28;20180;-41
2023/05/12 11:31:39;;;;;;;3.95;3.47;;;;;;;22.94;43.95;94924.38;5126630;28;20188;-46
2023/05/12 11:34:07;;;;;;;4.13;3.72;;;;;;;22.86;44.10;94924.59;5126222;28;20261;-45